TimeMDT,TemperatureF,Dew PointF,Humidity,Sea Level PressureIn,VisibilityMPH,Wind Direction,Wind SpeedMPH,Gust SpeedMPH,PrecipitationIn,Events,Conditions,WindDirDegrees,DateUTC
12:08 AM,64.4,62.6,94,30.24,4.0,NNE,8.1,-,0.01,Rain,Light Rain,30,2013-07-15 06:08:00
12:16 AM,64.4,62.6,94,30.25,5.0,NE,11.5,-,0.01,Rain,Light Rain,40,2013-07-15 06:16:00
12:28 AM,64.4,62.6,94,30.24,5.0,NNE,10.4,-,0.02,Rain,Light Rain,30,2013-07-15 06:28:00
12:54 AM,64.0,62.1,93,29.98,5.0,North,8.1,-,0.06,Rain,Light Rain,10,2013-07-15 06:54:00
1:54 AM,64.0,61.0,90,29.96,9.0,North,5.8,-,0.05,Rain,Light Rain,360,2013-07-15 07:54:00
2:54 AM,63.0,61.0,93,29.97,10.0,NNE,6.9,-,0.01,Rain,Light Rain,30,2013-07-15 08:54:00
3:21 AM,64.4,62.6,94,30.23,9.0,NE,10.4,-,0.00,,Overcast,40,2013-07-15 09:21:00
3:49 AM,62.6,60.8,94,30.23,9.0,NE,10.4,-,0.00,,Overcast,50,2013-07-15 09:49:00
3:54 AM,63.0,61.0,93,29.97,9.0,NE,9.2,-,0.00,,Overcast,50,2013-07-15 09:54:00
4:03 AM,62.6,60.8,94,30.24,9.0,NE,10.4,-,N/A,,Overcast,40,2013-07-15 10:03:00
4:07 AM,62.6,60.8,94,30.23,8.0,NE,11.5,-,N/A,,Overcast,50,2013-07-15 10:07:00
4:15 AM,62.6,60.8,94,30.23,8.0,NE,10.4,-,N/A,,Overcast,50,2013-07-15 10:15:00
4:22 AM,62.6,60.8,94,30.23,7.0,NE,10.4,-,N/A,,Overcast,50,2013-07-15 10:22:00
4:54 AM,63.0,61.0,93,29.99,8.0,ENE,10.4,17.3,0.00,Rain,Light Rain,70,2013-07-15 10:54:00
5:02 AM,62.6,60.8,94,30.24,6.0,ENE,10.4,-,0.00,,Overcast,70,2013-07-15 11:02:00
5:33 AM,62.6,60.8,94,30.24,9.0,East,11.5,-,0.00,,Overcast,80,2013-07-15 11:33:00
5:54 AM,61.0,59.0,93,30.03,10.0,ESE,9.2,-,0.00,,Overcast,110,2013-07-15 11:54:00
6:16 AM,60.8,57.2,88,30.25,10.0,ESE,9.2,-,N/A,,Overcast,110,2013-07-15 12:16:00
6:29 AM,60.8,57.2,88,30.26,10.0,East,8.1,-,N/A,,Overcast,100,2013-07-15 12:29:00
6:46 AM,60.8,57.2,88,30.26,10.0,East,11.5,-,N/A,,Overcast,100,2013-07-15 12:46:00
6:54 AM,60.1,57.0,90,30.06,10.0,ESE,15.0,-,N/A,,Overcast,110,2013-07-15 12:54:00
7:54 AM,61.0,57.0,87,30.07,10.0,East,9.2,-,N/A,,Overcast,100,2013-07-15 13:54:00
8:18 AM,62.6,57.2,82,30.28,10.0,ESE,10.4,-,N/A,,Mostly Cloudy,110,2013-07-15 14:18:00
8:54 AM,63.0,57.0,81,30.09,10.0,East,8.1,-,N/A,,Overcast,90,2013-07-15 14:54:00
9:54 AM,66.0,57.0,73,30.09,10.0,East,8.1,-,N/A,,Scattered Clouds,100,2013-07-15 15:54:00
10:15 AM,66.2,57.2,73,30.28,10.0,ENE,10.4,-,N/A,,Mostly Cloudy,70,2013-07-15 16:15:00
10:30 AM,66.2,57.2,73,30.29,10.0,East,10.4,-,N/A,,Mostly Cloudy,90,2013-07-15 16:30:00
10:54 AM,68.0,55.0,63,30.08,10.0,East,8.1,-,N/A,,Mostly Cloudy,80,2013-07-15 16:54:00
11:54 AM,70.0,53.1,55,30.06,10.0,East,9.2,-,N/A,,Partly Cloudy,80,2013-07-15 17:54:00
12:54 PM,71.1,50.0,47,30.05,10.0,East,10.4,16.1,N/A,,Clear,90,2013-07-15 18:54:00
1:54 PM,75.0,48.0,38,30.02,10.0,East,11.5,-,N/A,,Clear,90,2013-07-15 19:54:00
2:54 PM,73.0,46.9,39,30.02,10.0,East,10.4,18.4,N/A,,Clear,90,2013-07-15 20:54:00
3:54 PM,73.0,44.1,35,30.01,10.0,ESE,3.5,-,N/A,,Clear,110,2013-07-15 21:54:00
4:54 PM,73.9,46.0,37,29.99,10.0,East,11.5,18.4,N/A,,Clear,100,2013-07-15 22:54:00
5:54 PM,73.9,44.1,34,29.99,10.0,ENE,9.2,-,N/A,,Partly Cloudy,70,2013-07-15 23:54:00
6:54 PM,73.0,41.0,31,30.00,10.0,East,9.2,-,N/A,,Clear,100,2013-07-16 00:54:00
7:54 PM,70.0,42.1,36,30.01,10.0,ESE,8.1,-,N/A,,Partly Cloudy,110,2013-07-16 01:54:00
8:54 PM,64.0,51.1,63,30.05,10.0,ESE,11.5,21.9,N/A,,Mostly Cloudy,120,2013-07-16 02:54:00
9:54 PM,62.1,52.0,70,30.08,10.0,ESE,8.1,-,N/A,,Clear,110,2013-07-16 03:54:00
10:54 PM,61.0,52.0,72,30.08,10.0,ESE,6.9,-,N/A,,Clear,120,2013-07-16 04:54:00
11:54 PM,59.0,53.1,81,30.07,10.0,West,3.5,-,N/A,,Mostly Cloudy,280,2013-07-16 05:54:00